createdAt,value
2022-11-29T00:00:48.957Z,266.20
2022-11-29T00:01:48.895Z,271.20
2022-11-29T00:02:48.846Z,269.00
2022-11-29T00:03:48.667Z,282.50
2022-11-29T00:04:48.581Z,286.89
2022-11-29T00:05:48.491Z,294.60
2022-11-29T00:06:48.406Z,305.20
2022-11-29T00:07:48.445Z,302.50
2022-11-29T00:08:48.240Z,299.29
2022-11-29T00:09:48.159Z,307.60
2022-11-29T00:10:48.068Z,315.10
2022-11-29T00:11:47.978Z,354.20
2022-11-29T00:12:47.887Z,342.39
2022-11-29T00:13:47.794Z,361.70
2022-11-29T00:14:47.701Z,362.10
2022-11-29T00:15:47.612Z,397.70
2022-11-29T00:16:47.611Z,462.89
2022-11-29T00:17:47.439Z,402.79
2022-11-29T00:18:47.347Z,379.29
2022-11-29T00:19:47.260Z,415.00
2022-11-29T00:20:47.172Z,389.20
2022-11-29T00:21:47.093Z,352.00
2022-11-29T00:22:46.994Z,381.79
2022-11-29T00:23:46.905Z,362.39
2022-11-29T00:24:46.860Z,352.29
2022-11-29T00:25:46.725Z,383.50
2022-11-29T00:26:46.637Z,394.29
2022-11-29T00:27:46.544Z,415.20
2022-11-29T00:28:46.457Z,407.00
2022-11-29T00:29:46.372Z,426.79
2022-11-29T00:30:46.341Z,400.39
2022-11-29T00:31:46.210Z,431.60
2022-11-29T00:32:46.142Z,456.89
2022-11-29T00:33:46.029Z,503.10
2022-11-29T00:34:46.208Z,491.10
2022-11-29T00:35:45.850Z,518.00
2022-11-29T00:36:45.761Z,490.00
2022-11-29T00:37:45.669Z,478.10
2022-11-29T00:38:45.584Z,521.29
2022-11-29T00:39:45.496Z,477.39
2022-11-29T00:40:45.403Z,389.60
2022-11-29T00:41:45.314Z,449.10
2022-11-29T00:42:45.223Z,450.70
2022-11-29T00:43:45.133Z,474.00
2022-11-29T00:44:45.388Z,512.70
2022-11-29T00:45:44.991Z,598.29
2022-11-29T00:46:44.848Z,638.40
2022-11-29T00:47:44.755Z,685.20
2022-11-29T00:48:44.691Z,574.09
2022-11-29T00:49:44.566Z,658.70
2022-11-29T00:50:44.475Z,567.59
2022-11-29T00:51:44.397Z,528.79
2022-11-29T00:52:44.294Z,504.10
2022-11-29T00:53:44.202Z,539.79
2022-11-29T00:54:44.381Z,512.50
2022-11-29T00:55:44.021Z,463.79
2022-11-29T00:56:43.931Z,500.20
2022-11-29T00:57:43.839Z,448.50
2022-11-29T00:58:43.755Z,405.10
2022-11-29T00:59:43.658Z,508.10
2022-11-29T01:00:44.173Z,588.09
2022-11-29T01:01:43.538Z,474.20
2022-11-29T01:02:43.409Z,422.70
2022-11-29T01:03:43.308Z,451.50
2022-11-29T01:04:43.661Z,420.79
2022-11-29T01:05:43.116Z,427.39
2022-11-29T01:06:43.030Z,432.00
2022-11-29T01:07:42.975Z,448.70
2022-11-29T01:08:42.842Z,430.10
2022-11-29T01:09:42.746Z,325.79
2022-11-29T01:10:42.653Z,328.70
2022-11-29T01:11:42.565Z,348.89
2022-11-29T01:12:42.479Z,340.60
2022-11-29T01:13:42.397Z,389.89
2022-11-29T01:14:42.758Z,370.29
2022-11-29T01:15:42.210Z,426.29
2022-11-29T01:16:42.187Z,367.39
2022-11-29T01:17:42.035Z,380.00
2022-11-29T01:18:41.945Z,336.00
2022-11-29T01:19:46.446Z,407.79
2022-11-29T01:20:41.794Z,375.10
2022-11-29T01:21:41.670Z,363.39
2022-11-29T01:22:41.576Z,298.89
2022-11-29T01:23:41.483Z,298.70
2022-11-29T01:24:41.589Z,316.00
2022-11-29T01:25:41.290Z,296.70
2022-11-29T01:26:41.199Z,369.79
2022-11-29T01:27:41.099Z,328.89
2022-11-29T01:28:41.008Z,334.00
2022-11-29T01:29:40.920Z,359.79
2022-11-29T01:30:40.876Z,450.29
2022-11-29T01:31:40.728Z,408.39
2022-11-29T01:32:40.628Z,435.79
2022-11-29T01:33:40.527Z,431.20
2022-11-29T01:34:40.431Z,462.29
2022-11-29T01:35:40.350Z,423.00
2022-11-29T01:36:40.264Z,416.70
2022-11-29T01:37:40.139Z,447.60
2022-11-29T01:38:40.038Z,437.29
2022-11-29T01:39:39.943Z,442.89
2022-11-29T01:40:39.844Z,440.39
2022-11-29T01:41:39.743Z,518.09
2022-11-29T01:42:39.648Z,449.39
2022-11-29T01:43:39.554Z,388.79
2022-11-29T01:44:39.460Z,426.50
2022-11-29T01:45:39.403Z,546.50
2022-11-29T01:46:39.261Z,687.40
2022-11-29T01:47:39.166Z,640.50
2022-11-29T01:48:39.068Z,519.79
2022-11-29T01:49:38.971Z,656.40
2022-11-29T01:50:38.876Z,521.40
2022-11-29T01:51:38.783Z,443.79
2022-11-29T01:52:38.710Z,533.09
2022-11-29T01:53:38.587Z,938.29
2022-11-29T01:54:38.487Z,385.79
2022-11-29T01:55:38.482Z,550.40
2022-11-29T01:56:38.294Z,413.70
2022-11-29T01:57:38.200Z,445.70
2022-11-29T01:58:38.105Z,623.50
2022-11-29T01:59:38.011Z,1022.79
2022-11-29T02:00:37.916Z,321.50
2022-11-29T02:01:37.929Z,387.20
2022-11-29T02:02:37.756Z,421.00
2022-11-29T02:03:37.627Z,402.89
2022-11-29T02:04:37.538Z,355.70
2022-11-29T02:05:37.443Z,645.70
2022-11-29T02:06:37.355Z,414.50
2022-11-29T02:07:37.294Z,327.70
2022-11-29T02:08:37.224Z,436.79
2022-11-29T02:09:37.066Z,458.20
2022-11-29T02:10:36.971Z,400.50
2022-11-29T02:11:36.873Z,454.39
2022-11-29T02:12:36.779Z,361.89
2022-11-29T02:13:36.678Z,386.50
2022-11-29T02:14:36.583Z,397.79
2022-11-29T02:15:36.508Z,677.70
2022-11-29T02:16:36.404Z,1051.59
2022-11-29T02:17:36.315Z,616.59
2022-11-29T02:18:36.226Z,416.89
2022-11-29T02:19:36.131Z,400.89
2022-11-29T02:20:36.040Z,486.00
2022-11-29T02:21:35.956Z,716.50
2022-11-29T02:22:35.864Z,411.60
2022-11-29T02:23:35.773Z,447.10
2022-11-29T02:24:35.706Z,377.29
2022-11-29T02:25:35.590Z,349.50
2022-11-29T02:26:35.493Z,378.50
2022-11-29T02:27:35.401Z,358.00
2022-11-29T02:28:35.302Z,458.70
2022-11-29T02:29:35.208Z,606.40
2022-11-29T02:30:35.154Z,427.79
2022-11-29T02:31:35.019Z,400.70
2022-11-29T02:32:34.924Z,445.20
2022-11-29T02:33:34.825Z,424.60
2022-11-29T02:34:34.722Z,524.50
2022-11-29T02:35:34.626Z,355.20
2022-11-29T02:36:34.541Z,411.10
2022-11-29T02:37:34.447Z,399.50
2022-11-29T02:38:34.360Z,380.29
2022-11-29T02:39:34.283Z,378.70
2022-11-29T02:40:34.199Z,376.29
2022-11-29T02:41:34.081Z,415.89
2022-11-29T02:42:33.994Z,375.00
2022-11-29T02:43:33.905Z,412.39
2022-11-29T02:44:33.815Z,1094.40
2022-11-29T02:45:33.728Z,515.00
2022-11-29T02:46:33.680Z,396.79
2022-11-29T02:47:33.555Z,503.00
2022-11-29T02:48:33.472Z,352.70
2022-11-29T02:49:33.385Z,579.20
2022-11-29T02:50:33.295Z,411.39
2022-11-29T02:51:33.202Z,378.79
2022-11-29T02:52:33.114Z,395.89
2022-11-29T02:53:33.025Z,354.60
2022-11-29T02:54:32.937Z,491.79
2022-11-29T02:55:32.845Z,459.39
2022-11-29T02:56:32.781Z,365.79
2022-11-29T02:57:32.662Z,360.60
2022-11-29T02:58:32.569Z,428.39
2022-11-29T02:59:32.474Z,346.60
2022-11-29T03:00:32.377Z,603.09
2022-11-29T03:01:32.342Z,361.39
2022-11-29T03:02:32.229Z,379.60
2022-11-29T03:03:32.098Z,386.20
2022-11-29T03:04:31.997Z,369.10
2022-11-29T03:05:31.902Z,361.50
2022-11-29T03:06:31.808Z,441.50
2022-11-29T03:07:31.760Z,390.89
2022-11-29T03:08:31.629Z,390.70
2022-11-29T03:09:31.540Z,480.89
2022-11-29T03:10:31.443Z,420.29
2022-11-29T03:11:31.354Z,364.39
2022-11-29T03:12:31.288Z,443.39
2022-11-29T03:13:31.166Z,378.20
2022-11-29T03:14:31.074Z,500.20
2022-11-29T03:15:31.063Z,383.79
2022-11-29T03:16:30.891Z,397.70
2022-11-29T03:17:30.799Z,379.29
2022-11-29T03:18:30.709Z,425.89
2022-11-29T03:19:30.621Z,383.20
2022-11-29T03:20:30.531Z,557.70
2022-11-29T03:21:30.443Z,356.89
2022-11-29T03:22:30.348Z,430.39
2022-11-29T03:23:30.260Z,414.70
2022-11-29T03:24:30.171Z,375.50
2022-11-29T03:25:30.088Z,399.70
2022-11-29T03:26:29.999Z,492.60
2022-11-29T03:27:29.910Z,350.79
2022-11-29T03:28:29.844Z,372.39
2022-11-29T03:29:29.727Z,356.20
2022-11-29T03:30:29.636Z,454.20
2022-11-29T03:31:29.625Z,399.89
2022-11-29T03:32:29.455Z,364.10
2022-11-29T03:33:29.374Z,348.89
2022-11-29T03:34:29.297Z,366.29
2022-11-29T03:35:29.199Z,356.10
2022-11-29T03:36:29.115Z,798.90
2022-11-29T03:37:29.025Z,380.79
2022-11-29T03:38:28.938Z,436.10
2022-11-29T03:39:28.850Z,359.70
2022-11-29T03:40:28.766Z,354.10
2022-11-29T03:41:28.686Z,355.70
2022-11-29T03:42:28.603Z,337.50
2022-11-29T03:43:28.512Z,390.20
2022-11-29T03:44:28.447Z,359.20
2022-11-29T03:45:28.336Z,345.60
2022-11-29T03:46:28.279Z,354.00
2022-11-29T03:47:28.158Z,349.39
2022-11-29T03:48:28.064Z,351.20
2022-11-29T03:49:27.972Z,335.50
2022-11-29T03:50:27.887Z,346.60
2022-11-29T03:51:27.794Z,358.29
2022-11-29T03:52:27.703Z,351.20
2022-11-29T03:53:27.611Z,352.39
2022-11-29T03:54:27.521Z,352.20
2022-11-29T03:55:27.430Z,351.79
2022-11-29T03:56:27.340Z,392.89
2022-11-29T03:57:27.251Z,346.00
2022-11-29T03:58:27.164Z,356.00
2022-11-29T03:59:27.070Z,367.39
2022-11-29T04:00:27.008Z,338.60
2022-11-29T04:01:26.939Z,354.50
2022-11-29T04:02:26.819Z,349.60
2022-11-29T04:03:26.691Z,364.70
2022-11-29T04:04:26.602Z,353.10
2022-11-29T04:05:26.511Z,411.29
2022-11-29T04:06:26.416Z,387.70
2022-11-29T04:07:26.349Z,346.29
2022-11-29T04:08:26.233Z,424.39
2022-11-29T04:09:26.144Z,582.00
2022-11-29T04:10:26.053Z,340.39
2022-11-29T04:11:25.960Z,370.70
2022-11-29T04:12:25.866Z,484.70
2022-11-29T04:13:25.776Z,390.50
2022-11-29T04:14:25.677Z,351.39
2022-11-29T04:15:25.581Z,361.79
2022-11-29T04:16:25.509Z,320.50
2022-11-29T04:17:25.396Z,408.29
2022-11-29T04:18:25.297Z,377.10
2022-11-29T04:19:25.201Z,439.39
2022-11-29T04:20:25.106Z,390.00
2022-11-29T04:21:25.013Z,351.89
2022-11-29T04:22:24.921Z,925.09
2022-11-29T04:23:24.835Z,579.09
2022-11-29T04:24:24.745Z,327.50
2022-11-29T04:25:24.655Z,440.20
2022-11-29T04:26:24.559Z,352.79
2022-11-29T04:27:24.463Z,389.20
2022-11-29T04:28:24.375Z,360.00
2022-11-29T04:29:24.278Z,297.89
2022-11-29T04:30:24.194Z,324.20
2022-11-29T04:31:24.137Z,318.70
2022-11-29T04:32:24.023Z,416.70
2022-11-29T04:33:23.903Z,313.89
2022-11-29T04:34:23.806Z,314.20
2022-11-29T04:35:23.707Z,368.60
2022-11-29T04:36:23.611Z,309.20
2022-11-29T04:37:23.514Z,328.50
2022-11-29T04:38:23.414Z,284.29
2022-11-29T04:39:23.318Z,315.29
2022-11-29T04:40:23.216Z,321.00
2022-11-29T04:41:23.118Z,308.79
2022-11-29T04:42:23.015Z,330.70
2022-11-29T04:43:22.921Z,339.39
2022-11-29T04:44:22.821Z,332.20
2022-11-29T04:45:22.726Z,322.10
2022-11-29T04:46:22.707Z,309.20
2022-11-29T04:47:22.527Z,320.60
2022-11-29T04:48:22.456Z,348.60
2022-11-29T04:49:22.329Z,305.00
2022-11-29T04:50:22.236Z,350.89
2022-11-29T04:51:22.140Z,326.60
2022-11-29T04:52:22.050Z,327.39
2022-11-29T04:53:21.960Z,348.10
2022-11-29T04:54:21.870Z,346.00
2022-11-29T04:55:27.844Z,347.39
2022-11-29T04:56:21.688Z,346.29
2022-11-29T04:57:21.591Z,498.20
2022-11-29T04:58:21.496Z,332.60
2022-11-29T04:59:21.402Z,442.89
2022-11-29T05:00:21.316Z,331.29
2022-11-29T05:01:21.315Z,351.10
2022-11-29T05:02:21.190Z,329.50
2022-11-29T05:03:21.041Z,328.00
2022-11-29T05:04:20.983Z,332.89
2022-11-29T05:05:20.867Z,311.79
2022-11-29T05:06:20.789Z,335.60
2022-11-29T05:07:20.758Z,349.60
2022-11-29T05:08:20.600Z,326.70
2022-11-29T05:09:20.521Z,339.50
2022-11-29T05:10:20.424Z,319.50
2022-11-29T05:11:26.334Z,317.10
2022-11-29T05:12:21.256Z,294.89
2022-11-29T05:13:20.151Z,305.29
2022-11-29T05:14:20.058Z,302.20
2022-11-29T05:15:19.967Z,273.89
2022-11-29T05:16:19.916Z,292.39
2022-11-29T05:17:19.785Z,290.50
2022-11-29T05:18:19.691Z,284.10
2022-11-29T05:19:19.599Z,295.00
2022-11-29T05:20:19.534Z,293.60
2022-11-29T05:21:19.419Z,278.60
2022-11-29T05:22:19.327Z,266.10
2022-11-29T05:23:19.237Z,283.20
2022-11-29T05:24:19.146Z,292.39
2022-11-29T05:25:19.053Z,273.10
2022-11-29T05:26:18.960Z,283.60
2022-11-29T05:27:18.862Z,296.20
2022-11-29T05:28:18.773Z,270.20
2022-11-29T05:29:18.676Z,276.89
2022-11-29T05:30:18.620Z,302.39
2022-11-29T05:31:18.557Z,288.79
2022-11-29T05:32:18.405Z,275.79
2022-11-29T05:33:18.308Z,284.70
2022-11-29T05:34:18.220Z,288.89
2022-11-29T05:35:18.127Z,282.79
2022-11-29T05:36:18.057Z,272.60
2022-11-29T05:37:17.939Z,276.70
2022-11-29T05:38:17.837Z,289.00
2022-11-29T05:39:17.741Z,275.70
2022-11-29T05:40:17.644Z,274.20
2022-11-29T05:41:17.549Z,280.39
2022-11-29T05:42:17.458Z,288.50
2022-11-29T05:43:17.366Z,287.70
2022-11-29T05:44:17.277Z,279.20
2022-11-29T05:45:17.199Z,297.20
2022-11-29T05:46:17.150Z,285.79
2022-11-29T05:47:17.000Z,286.20
2022-11-29T05:48:16.907Z,271.60
2022-11-29T05:49:16.814Z,286.29
2022-11-29T05:50:16.723Z,276.39
2022-11-29T05:51:16.630Z,265.50
2022-11-29T05:52:16.566Z,266.10
2022-11-29T05:53:16.451Z,253.00
2022-11-29T05:54:16.363Z,270.20
2022-11-29T05:55:16.272Z,269.79
2022-11-29T05:56:16.184Z,275.70
2022-11-29T05:57:16.095Z,268.79
2022-11-29T05:58:16.007Z,243.50
2022-11-29T05:59:15.910Z,263.70
2022-11-29T06:00:15.811Z,259.10
2022-11-29T06:01:15.712Z,270.70
2022-11-29T06:02:15.667Z,257.00
2022-11-29T06:03:15.563Z,255.69
2022-11-29T06:04:15.421Z,274.20
2022-11-29T06:05:15.312Z,249.10
2022-11-29T06:06:15.216Z,249.69
2022-11-29T06:07:15.212Z,246.39
2022-11-29T06:08:15.069Z,249.00
2022-11-29T06:09:14.928Z,276.00
2022-11-29T06:10:14.835Z,255.00
2022-11-29T06:11:14.736Z,258.89
2022-11-29T06:12:19.509Z,271.20
2022-11-29T06:13:15.556Z,255.00
2022-11-29T06:14:14.449Z,283.00
2022-11-29T06:15:14.348Z,237.69
2022-11-29T06:16:14.311Z,256.39
2022-11-29T06:17:14.148Z,249.39
2022-11-29T06:18:14.047Z,256.79
2022-11-29T06:19:13.945Z,234.39
2022-11-29T06:20:13.849Z,245.50
2022-11-29T06:21:13.747Z,229.89
2022-11-29T06:22:13.647Z,255.00
2022-11-29T06:23:13.545Z,251.60
2022-11-29T06:24:13.470Z,223.69
2022-11-29T06:25:13.350Z,232.10
2022-11-29T06:26:13.247Z,231.19
2022-11-29T06:27:13.152Z,236.80
2022-11-29T06:28:13.049Z,247.39
2022-11-29T06:29:12.954Z,219.50
2022-11-29T06:30:12.869Z,237.50
2022-11-29T06:31:12.831Z,247.00
2022-11-29T06:32:12.671Z,239.19
2022-11-29T06:33:12.573Z,247.60
2022-11-29T06:34:12.480Z,216.69
2022-11-29T06:35:12.392Z,206.50
2022-11-29T06:36:12.293Z,218.19
2022-11-29T06:37:12.189Z,212.30
2022-11-29T06:38:12.096Z,230.39
2022-11-29T06:39:11.998Z,202.00
2022-11-29T06:40:11.950Z,211.80
2022-11-29T06:41:11.809Z,219.39
2022-11-29T06:42:11.712Z,205.80
2022-11-29T06:43:11.622Z,229.89
2022-11-29T06:44:11.521Z,227.50
2022-11-29T06:45:11.429Z,249.00
2022-11-29T06:46:11.414Z,238.39
2022-11-29T06:47:11.233Z,213.89
2022-11-29T06:48:11.137Z,220.80
2022-11-29T06:49:11.045Z,209.30
2022-11-29T06:50:10.950Z,228.00
2022-11-29T06:51:10.856Z,230.39
2022-11-29T06:52:10.767Z,209.10
2022-11-29T06:53:10.678Z,228.39
2022-11-29T06:54:10.583Z,238.60
2022-11-29T06:55:10.488Z,208.80
2022-11-29T06:56:10.417Z,206.60
2022-11-29T06:57:10.288Z,199.60
2022-11-29T06:58:10.189Z,218.60
2022-11-29T06:59:10.095Z,205.69
2022-11-29T07:00:10.007Z,205.89
2022-11-29T07:01:09.987Z,181.60
2022-11-29T07:02:09.848Z,181.80
2022-11-29T07:03:09.725Z,192.60
2022-11-29T07:04:09.633Z,176.30
2022-11-29T07:05:09.547Z,183.60
2022-11-29T07:06:09.448Z,191.30
2022-11-29T07:07:09.356Z,169.39
2022-11-29T07:08:09.267Z,186.60
2022-11-29T07:09:09.173Z,184.60
2022-11-29T07:10:13.537Z,175.50
2022-11-29T07:11:08.985Z,163.30
2022-11-29T07:12:08.920Z,177.60
2022-11-29T07:13:08.804Z,191.80
2022-11-29T07:14:08.717Z,170.00
2022-11-29T07:15:08.629Z,180.50
2022-11-29T07:16:08.579Z,162.10
2022-11-29T07:17:08.438Z,143.19
2022-11-29T07:18:08.341Z,166.50
2022-11-29T07:19:08.344Z,178.69
2022-11-29T07:20:08.148Z,163.50
2022-11-29T07:21:08.051Z,160.19
2022-11-29T07:22:07.952Z,152.10
2022-11-29T07:23:07.852Z,159.60
2022-11-29T07:24:07.759Z,166.19
2022-11-29T07:25:07.647Z,171.39
2022-11-29T07:26:07.549Z,160.80
2022-11-29T07:27:07.451Z,168.30
2022-11-29T07:28:07.384Z,157.50
2022-11-29T07:29:07.255Z,148.39
2022-11-29T07:30:07.154Z,130.39
2022-11-29T07:31:07.135Z,135.69
2022-11-29T07:32:06.965Z,138.30
2022-11-29T07:33:06.866Z,116.00
2022-11-29T07:34:06.773Z,131.69
2022-11-29T07:35:06.686Z,130.19
2022-11-29T07:36:06.583Z,139.10
2022-11-29T07:37:06.484Z,126.90
2022-11-29T07:38:06.386Z,137.19
2022-11-29T07:39:06.291Z,109.19
2022-11-29T07:40:06.194Z,130.19
2022-11-29T07:41:06.101Z,125.30
2022-11-29T07:42:06.004Z,117.50
2022-11-29T07:43:05.910Z,111.59
2022-11-29T07:44:05.837Z,115.30
2022-11-29T07:45:05.719Z,107.59
2022-11-29T07:46:05.621Z,121.00
2022-11-29T07:47:05.568Z,120.00
2022-11-29T07:48:05.424Z,95.90
2022-11-29T07:49:05.332Z,110.00
2022-11-29T07:50:05.234Z,110.40
2022-11-29T07:51:05.135Z,108.80
2022-11-29T07:52:05.038Z,87.80
2022-11-29T07:53:04.940Z,74.50
2022-11-29T07:54:04.843Z,77.80
2022-11-29T07:55:04.775Z,92.00
2022-11-29T07:56:04.644Z,89.80
2022-11-29T07:57:04.547Z,92.80
2022-11-29T07:58:04.452Z,98.09
2022-11-29T07:59:04.431Z,84.40
2022-11-29T08:00:04.285Z,81.50
2022-11-29T08:01:04.199Z,83.19
2022-11-29T08:02:10.175Z,81.19
2022-11-29T08:03:04.973Z,72.80
2022-11-29T08:04:03.860Z,73.59
2022-11-29T08:05:03.762Z,68.09
2022-11-29T08:06:03.664Z,76.69
2022-11-29T08:07:03.566Z,71.90
2022-11-29T08:08:03.467Z,70.59
2022-11-29T08:09:03.367Z,78.09
2022-11-29T08:10:03.268Z,68.30
2022-11-29T08:11:03.168Z,63.40
2022-11-29T08:12:03.076Z,71.50
2022-11-29T08:13:02.971Z,70.30
2022-11-29T08:14:02.880Z,64.40
2022-11-29T08:15:02.777Z,70.40
2022-11-29T08:16:02.743Z,67.69
2022-11-29T08:17:02.581Z,61.20
2022-11-29T08:18:02.486Z,71.69
2022-11-29T08:19:02.385Z,60.70
2022-11-29T08:20:04.340Z,68.09
2022-11-29T08:21:02.193Z,60.09
2022-11-29T08:22:02.098Z,60.40
2022-11-29T08:23:01.996Z,75.50
2022-11-29T08:24:01.896Z,50.79
2022-11-29T08:25:01.800Z,55.70
2022-11-29T08:26:01.710Z,55.59
2022-11-29T08:27:01.596Z,59.00
2022-11-29T08:28:01.498Z,60.29
2022-11-29T08:29:01.398Z,67.59
2022-11-29T08:30:01.295Z,57.20
2022-11-29T08:31:01.194Z,63.00
2022-11-29T08:32:01.164Z,57.29
2022-11-29T08:33:00.994Z,60.20
2022-11-29T08:34:00.892Z,62.70
2022-11-29T08:35:00.794Z,59.00
2022-11-29T08:36:00.693Z,63.29
2022-11-29T08:37:00.589Z,56.79
2022-11-29T08:38:00.488Z,52.59
2022-11-29T08:39:07.541Z,62.50
2022-11-29T08:40:01.290Z,63.50
2022-11-29T08:41:00.174Z,61.40
2022-11-29T08:42:00.081Z,70.69
2022-11-29T08:42:59.974Z,62.00
2022-11-29T08:43:59.869Z,64.59
2022-11-29T08:44:59.767Z,53.70
2022-11-29T08:45:59.685Z,57.79
2022-11-29T08:46:59.563Z,56.29
2022-11-29T08:47:59.498Z,44.29
2022-11-29T08:48:59.365Z,47.00
2022-11-29T08:49:59.259Z,58.40
2022-11-29T08:50:59.159Z,54.50
2022-11-29T08:51:59.056Z,53.70
2022-11-29T08:52:58.950Z,60.20
2022-11-29T08:53:58.849Z,53.20
2022-11-29T08:55:02.986Z,55.00
2022-11-29T08:55:58.631Z,55.09
2022-11-29T08:57:37.814Z,54.90
2022-11-29T08:57:59.432Z,54.20
2022-11-29T08:58:58.314Z,57.29
2022-11-29T08:59:58.378Z,57.59
2022-11-29T09:00:58.130Z,53.00
2022-11-29T09:01:58.047Z,57.59
2022-11-29T09:02:57.898Z,52.70
2022-11-29T09:03:57.814Z,54.59
2022-11-29T09:04:57.682Z,53.40
2022-11-29T09:05:57.649Z,57.29
2022-11-29T09:06:57.481Z,57.70
2022-11-29T09:07:57.433Z,59.20
2022-11-29T09:08:57.273Z,60.79
2022-11-29T09:09:57.172Z,61.50
2022-11-29T09:10:57.069Z,58.00
2022-11-29T09:11:56.964Z,52.90
2022-11-29T09:12:56.855Z,57.59
2022-11-29T09:13:56.748Z,60.00
2022-11-29T09:14:56.641Z,51.70
2022-11-29T09:15:56.525Z,59.79
2022-11-29T09:16:56.682Z,53.79
2022-11-29T09:17:56.308Z,57.59
2022-11-29T09:18:56.197Z,64.50
2022-11-29T09:19:56.121Z,51.00
2022-11-29T09:20:55.986Z,51.90
2022-11-29T09:21:55.876Z,51.29
2022-11-29T09:22:55.763Z,60.90
2022-11-29T09:23:55.657Z,57.29
2022-11-29T09:24:55.547Z,57.29
2022-11-29T09:25:55.439Z,54.29
2022-11-29T09:26:55.327Z,53.09
2022-11-29T09:27:55.216Z,50.79
2022-11-29T09:28:55.105Z,53.59
2022-11-29T09:29:54.995Z,61.20
2022-11-29T09:30:54.884Z,58.90
2022-11-29T09:31:54.827Z,54.59
2022-11-29T09:32:54.667Z,64.69
2022-11-29T09:33:54.560Z,64.59
2022-11-29T09:34:54.447Z,53.00
2022-11-29T09:35:54.368Z,58.20
2022-11-29T09:36:54.228Z,58.40
2022-11-29T09:37:54.116Z,55.50
2022-11-29T09:38:54.005Z,66.30
2022-11-29T09:39:53.899Z,51.79
2022-11-29T09:40:53.793Z,64.00
2022-11-29T09:41:53.687Z,57.79
2022-11-29T09:42:53.572Z,69.80
2022-11-29T09:43:53.464Z,56.59
2022-11-29T09:44:53.353Z,63.90
2022-11-29T09:45:53.300Z,63.50
2022-11-29T09:46:57.318Z,59.00
2022-11-29T09:47:53.027Z,72.30
2022-11-29T09:48:52.923Z,62.70
2022-11-29T09:49:52.815Z,64.40
2022-11-29T09:50:52.708Z,63.09
2022-11-29T09:51:52.630Z,57.20
2022-11-29T09:52:52.503Z,69.19
2022-11-29T09:53:52.406Z,67.19
2022-11-29T09:54:52.286Z,62.09
2022-11-29T09:55:52.177Z,71.30
2022-11-29T09:56:52.070Z,64.90
2022-11-29T09:57:51.966Z,73.80
2022-11-29T09:58:51.861Z,65.19
2022-11-29T09:59:51.751Z,64.00
2022-11-29T10:00:51.684Z,68.30
2022-11-29T10:01:51.537Z,70.50
2022-11-29T10:02:51.473Z,71.90
2022-11-29T10:03:51.321Z,68.80
2022-11-29T10:04:51.217Z,65.30
2022-11-29T10:05:51.103Z,70.00
2022-11-29T10:06:50.988Z,62.90
2022-11-29T10:07:50.982Z,69.50
2022-11-29T10:08:50.782Z,60.09
2022-11-29T10:09:50.674Z,65.69
2022-11-29T10:10:50.562Z,64.30
2022-11-29T10:11:50.456Z,56.20
2022-11-29T10:12:50.345Z,51.09
2022-11-29T10:13:50.235Z,58.50
2022-11-29T10:14:50.126Z,60.90
2022-11-29T10:15:50.019Z,58.29
2022-11-29T10:16:49.963Z,61.29
2022-11-29T10:17:49.803Z,62.40
2022-11-29T10:18:49.694Z,68.59
2022-11-29T10:19:49.580Z,62.59
2022-11-29T10:20:49.513Z,57.20
2022-11-29T10:21:49.353Z,58.40
2022-11-29T10:22:49.244Z,63.70
2022-11-29T10:23:49.158Z,64.90
2022-11-29T10:24:49.029Z,62.59
2022-11-29T10:25:48.915Z,60.70
2022-11-29T10:26:48.802Z,62.90
2022-11-29T10:27:48.686Z,63.90
2022-11-29T10:28:48.582Z,63.70
2022-11-29T10:29:48.460Z,68.40
2022-11-29T10:30:48.415Z,57.40
2022-11-29T10:31:48.227Z,60.50
2022-11-29T10:32:48.110Z,55.09
2022-11-29T10:33:47.986Z,54.70
2022-11-29T10:34:48.067Z,60.90
2022-11-29T10:35:47.751Z,62.09
2022-11-29T10:36:47.668Z,61.29
2022-11-29T10:38:07.598Z,68.90
2022-11-29T10:38:48.415Z,61.00
2022-11-29T10:39:47.319Z,65.40
2022-11-29T10:40:47.177Z,70.19
2022-11-29T10:41:47.073Z,68.00
2022-11-29T10:42:46.977Z,70.30
2022-11-29T10:43:46.861Z,72.09
2022-11-29T10:44:47.185Z,70.69
2022-11-29T10:45:48.487Z,70.30
2022-11-29T10:46:46.521Z,73.40
2022-11-29T10:47:46.408Z,72.59
2022-11-29T10:48:46.298Z,65.40
2022-11-29T10:49:46.186Z,78.69
2022-11-29T10:50:46.072Z,74.19
2022-11-29T10:51:45.958Z,75.09
2022-11-29T10:52:45.842Z,71.90
2022-11-29T10:53:45.734Z,74.59
2022-11-29T10:54:45.980Z,74.19
2022-11-29T10:55:45.533Z,75.90
2022-11-29T10:56:45.392Z,74.80
2022-11-29T10:57:45.278Z,81.19
2022-11-29T10:58:45.163Z,71.80
2022-11-29T10:59:45.047Z,72.00
2022-11-29T11:00:44.937Z,75.40
2022-11-29T11:01:44.899Z,74.59
2022-11-29T11:02:44.707Z,86.30
2022-11-29T11:03:47.037Z,80.19
2022-11-29T11:04:44.715Z,76.30
2022-11-29T11:05:44.399Z,84.80
2022-11-29T11:06:44.260Z,85.80
2022-11-29T11:07:44.162Z,83.00
2022-11-29T11:08:44.044Z,74.19
2022-11-29T11:09:43.933Z,78.40
2022-11-29T11:10:45.933Z,71.69
2022-11-29T11:11:43.751Z,83.09
2022-11-29T11:12:43.616Z,86.90
2022-11-29T11:13:43.502Z,83.80
2022-11-29T11:14:43.739Z,83.30
2022-11-29T11:15:43.283Z,78.90
2022-11-29T11:16:43.222Z,78.90
2022-11-29T11:17:43.073Z,74.80
2022-11-29T11:18:42.968Z,74.30
2022-11-29T11:19:42.864Z,88.00
2022-11-29T11:20:42.760Z,86.09
2022-11-29T11:21:42.656Z,86.69
2022-11-29T11:22:42.554Z,107.50
2022-11-29T11:23:42.989Z,85.80
2022-11-29T11:24:42.456Z,88.69
2022-11-29T11:25:42.247Z,102.80
2022-11-29T11:26:42.145Z,94.00
2022-11-29T11:27:42.066Z,110.50
2022-11-29T11:28:41.962Z,109.50
2022-11-29T11:29:41.832Z,113.80
2022-11-29T11:30:41.767Z,107.50
2022-11-29T11:31:41.630Z,105.80
2022-11-29T11:32:41.521Z,122.69
2022-11-29T11:33:41.416Z,115.19
2022-11-29T11:34:41.303Z,143.60
2022-11-29T11:35:41.194Z,117.90
2022-11-29T11:36:41.091Z,110.50
2022-11-29T11:37:40.982Z,111.80
2022-11-29T11:38:40.881Z,113.90
2022-11-29T11:39:40.781Z,121.00
2022-11-29T11:40:40.763Z,119.40
2022-11-29T11:41:40.576Z,131.69
2022-11-29T11:42:40.570Z,128.39
2022-11-29T11:43:40.390Z,138.80
2022-11-29T11:44:58.357Z,133.80
2022-11-29T11:45:41.178Z,156.89
2022-11-29T11:46:40.138Z,164.89
2022-11-29T11:47:39.973Z,167.10
2022-11-29T11:48:39.877Z,152.19
2022-11-29T11:49:39.780Z,164.50
2022-11-29T11:50:39.679Z,149.80
2022-11-29T11:51:39.580Z,157.69
2022-11-29T11:52:41.295Z,264.89
2022-11-29T11:53:39.376Z,179.89
2022-11-29T11:54:39.272Z,150.69
2022-11-29T11:55:39.170Z,164.39
2022-11-29T11:56:39.070Z,160.89
2022-11-29T11:57:38.973Z,152.89
2022-11-29T11:58:38.867Z,145.60
2022-11-29T11:59:38.789Z,149.69
2022-11-29T12:01:02.413Z,142.39
2022-11-29T12:01:39.581Z,140.30
2022-11-29T12:02:38.591Z,139.00
2022-11-29T12:03:38.421Z,160.30
2022-11-29T12:04:38.265Z,147.50
2022-11-29T12:05:40.596Z,129.39
2022-11-29T12:06:38.072Z,143.39
2022-11-29T12:08:06.758Z,134.00
2022-11-29T12:08:38.922Z,133.10
2022-11-29T12:09:37.780Z,130.39
2022-11-29T12:10:37.692Z,125.00
2022-11-29T12:11:37.576Z,119.59
2022-11-29T12:12:37.479Z,123.09
2022-11-29T12:13:37.380Z,133.10
2022-11-29T12:14:37.277Z,120.30
2022-11-29T12:15:37.233Z,149.39
2022-11-29T12:16:37.066Z,143.39
2022-11-29T12:17:36.968Z,129.30
2022-11-29T12:18:36.861Z,118.50
2022-11-29T12:19:36.768Z,108.30
2022-11-29T12:20:36.659Z,108.19
2022-11-29T12:21:36.562Z,112.40
2022-11-29T12:22:36.457Z,122.30
2022-11-29T12:23:36.355Z,119.59
2022-11-29T12:24:36.260Z,112.59
2022-11-29T12:25:36.158Z,114.69
2022-11-29T12:26:56.600Z,96.90
2022-11-29T12:27:36.975Z,108.09
2022-11-29T12:28:35.860Z,107.09
2022-11-29T12:29:35.765Z,106.50
2022-11-29T12:30:35.665Z,97.09
2022-11-29T12:31:35.702Z,98.40
2022-11-29T12:32:35.460Z,99.50
2022-11-29T12:33:35.364Z,91.40
2022-11-29T12:34:35.257Z,101.19